<?xml version='1.0' encoding='UTF-8'?><gpx version="1.1" creator="JPX - https://github.com/jenetics/jpx" xmlns="http://www.topografix.com/GPX/1/1"><trk><trkseg><trkpt lat="43.1515552" lon="12.4329616"><ele>351.0</ele><time>2026-04-23T15:31:26.962Z</time></trkpt><trkpt lat="43.1524176" lon="12.4355348"><ele>328.0</ele><time>2026-04-23T15:31:51.962Z</time></trkpt><trkpt lat="43.1544357" lon="12.4352911"><ele>295.0</ele><time>2026-04-23T15:32:13.962Z</time></trkpt><trkpt lat="43.1571204" lon="12.4344229"><ele>246.0</ele><time>2026-04-23T15:32:34.962Z</time></trkpt><trkpt lat="43.1599238" lon="12.4347028"><ele>210.0</ele><time>2026-04-23T15:33:05.962Z</time></trkpt><trkpt lat="43.1625576" lon="12.4335559"><ele>211.0</ele><time>2026-04-23T15:33:29.963Z</time></trkpt><trkpt lat="43.1645735" lon="12.4332094"><ele>226.0</ele><time>2026-04-23T15:34:01.962Z</time></trkpt><trkpt lat="43.1660374" lon="12.4298793"><ele>216.0</ele><time>2026-04-23T15:34:22.962Z</time></trkpt><trkpt lat="43.1680531" lon="12.427193"><ele>209.0</ele><time>2026-04-23T15:34:39.962Z</time></trkpt><trkpt lat="43.1714511" lon="12.4269567"><ele>203.0</ele><time>2026-04-23T15:35:07.962Z</time></trkpt><trkpt lat="43.171558" lon="12.4289312"><ele>207.0</ele><time>2026-04-23T15:35:59.962Z</time></trkpt><trkpt lat="43.1708504" lon="12.432575"><ele>201.0</ele><time>2026-04-23T15:36:44.962Z</time></trkpt><trkpt lat="43.1704556" lon="12.4363163"><ele>206.0</ele><time>2026-04-23T15:37:11.962Z</time></trkpt><trkpt lat="43.1689133" lon="12.4381926"><ele>204.0</ele><time>2026-04-23T15:37:27.962Z</time></trkpt><trkpt lat="43.1697625" lon="12.4417108"><ele>209.0</ele><time>2026-04-23T15:37:58.962Z</time></trkpt><trkpt lat="43.1709439" lon="12.4451117"><ele>213.0</ele><time>2026-04-23T15:38:55.962Z</time></trkpt><trkpt lat="43.1727734" lon="12.4463853"><ele>216.0</ele><time>2026-04-23T15:39:22.962Z</time></trkpt><trkpt lat="43.1753774" lon="12.4475574"><ele>218.0</ele><time>2026-04-23T15:41:15.962Z</time></trkpt><trkpt lat="43.1773122" lon="12.4485527"><ele>225.0</ele><time>2026-04-23T15:41:49.962Z</time></trkpt><trkpt lat="43.1800363" lon="12.4490571"><ele>228.0</ele><time>2026-04-23T15:42:20.962Z</time></trkpt><trkpt lat="43.1824052" lon="12.450928"><ele>231.0</ele><time>2026-04-23T15:42:40.963Z</time></trkpt><trkpt lat="43.1848563" lon="12.4526219"><ele>230.0</ele><time>2026-04-23T15:43:02.962Z</time></trkpt><trkpt lat="43.1860701" lon="12.4548398"><ele>237.0</ele><time>2026-04-23T15:43:22.962Z</time></trkpt><trkpt lat="43.1886201" lon="12.4562105"><ele>243.0</ele><time>2026-04-23T15:43:53.962Z</time></trkpt><trkpt lat="43.1913192" lon="12.4567939"><ele>254.0</ele><time>2026-04-23T15:44:13.962Z</time></trkpt><trkpt lat="43.1939225" lon="12.4578146"><ele>260.0</ele><time>2026-04-23T15:44:49.962Z</time></trkpt><trkpt lat="43.1958117" lon="12.4604827"><ele>259.0</ele><time>2026-04-23T15:45:18.962Z</time></trkpt><trkpt lat="43.1971343" lon="12.462655"><ele>252.0</ele><time>2026-04-23T15:45:53.962Z</time></trkpt><trkpt lat="43.1983149" lon="12.4636229"><ele>254.0</ele><time>2026-04-23T15:46:29.962Z</time></trkpt><trkpt lat="43.1995689" lon="12.4644158"><ele>257.0</ele><time>2026-04-23T15:46:58.962Z</time></trkpt><trkpt lat="43.1997878" lon="12.4671864"><ele>260.0</ele><time>2026-04-23T15:50:06.962Z</time></trkpt><trkpt lat="43.2008165" lon="12.4684155"><ele>262.0</ele><time>2026-04-23T15:50:23.962Z</time></trkpt><trkpt lat="43.2024966" lon="12.4701012"><ele>273.0</ele><time>2026-04-23T15:50:44.962Z</time></trkpt><trkpt lat="43.2032469" lon="12.4727341"><ele>294.0</ele><time>2026-04-23T15:51:12.962Z</time></trkpt><trkpt lat="43.2027837" lon="12.4754646"><ele>293.0</ele><time>2026-04-23T15:52:08.962Z</time></trkpt><trkpt lat="43.2048372" lon="12.4756969"><ele>283.0</ele><time>2026-04-23T15:52:44.962Z</time></trkpt><trkpt lat="43.2068888" lon="12.4751868"><ele>290.0</ele><time>2026-04-23T15:53:01.962Z</time></trkpt><trkpt lat="43.2096281" lon="12.4757871"><ele>289.0</ele><time>2026-04-23T15:53:29.962Z</time></trkpt><trkpt lat="43.2121365" lon="12.4772295"><ele>293.0</ele><time>2026-04-23T15:54:08.962Z</time></trkpt><trkpt lat="43.2133782" lon="12.4780392"><ele>292.0</ele><time>2026-04-23T15:54:33.962Z</time></trkpt><trkpt lat="43.2137086" lon="12.4798602"><ele>312.0</ele><time>2026-04-23T15:54:59.962Z</time></trkpt><trkpt lat="43.2137942" lon="12.4817038"><ele>292.0</ele><time>2026-04-23T15:56:40.962Z</time></trkpt><trkpt lat="43.2136989" lon="12.479843"><ele>293.0</ele><time>2026-04-23T16:04:15.957Z</time></trkpt><trkpt lat="43.213328" lon="12.4779844"><ele>320.0</ele><time>2026-04-23T16:04:42.957Z</time></trkpt><trkpt lat="43.2150431" lon="12.4795264"><ele>316.0</ele><time>2026-04-23T16:05:40.957Z</time></trkpt><trkpt lat="43.2168467" lon="12.4823593"><ele>317.0</ele><time>2026-04-23T16:06:04.957Z</time></trkpt><trkpt lat="43.2185356" lon="12.4852611"><ele>318.0</ele><time>2026-04-23T16:06:48.957Z</time></trkpt><trkpt lat="43.2195899" lon="12.4877974"><ele>327.0</ele><time>2026-04-23T16:07:06.957Z</time></trkpt><trkpt lat="43.2211661" lon="12.490805"><ele>343.0</ele><time>2026-04-23T16:07:32.958Z</time></trkpt><trkpt lat="43.2224405" lon="12.4929771"><ele>338.0</ele><time>2026-04-23T16:08:01.957Z</time></trkpt><trkpt lat="43.2220385" lon="12.4938359"><ele>378.0</ele><time>2026-04-23T16:09:16.957Z</time></trkpt><trkpt lat="43.2224235" lon="12.496711"><ele>423.0</ele><time>2026-04-23T16:10:25.957Z</time></trkpt><trkpt lat="43.2251954" lon="12.4961883"><ele>509.0</ele><time>2026-04-23T16:11:21.957Z</time></trkpt><trkpt lat="43.2277126" lon="12.4975899"><ele>531.0</ele><time>2026-04-23T16:13:11.957Z</time></trkpt><trkpt lat="43.2298017" lon="12.4977608"><ele>571.0</ele><time>2026-04-23T16:13:33.957Z</time></trkpt><trkpt lat="43.2323258" lon="12.4991994"><ele>567.0</ele><time>2026-04-23T16:14:15.957Z</time></trkpt><trkpt lat="43.2342954" lon="12.4983721"><ele>568.0</ele><time>2026-04-23T16:14:34.957Z</time></trkpt><trkpt lat="43.2370186" lon="12.4985052"><ele>578.0</ele><time>2026-04-23T16:14:59.957Z</time></trkpt><trkpt lat="43.2390511" lon="12.4984011"><ele>593.0</ele><time>2026-04-23T16:15:23.957Z</time></trkpt><trkpt lat="43.2410332" lon="12.4993349"><ele>614.0</ele><time>2026-04-23T16:15:46.957Z</time></trkpt><trkpt lat="43.2425674" lon="12.5025099"><ele>603.0</ele><time>2026-04-23T16:16:13.957Z</time></trkpt><trkpt lat="43.2448621" lon="12.5045689"><ele>631.0</ele><time>2026-04-23T16:19:09.957Z</time></trkpt><trkpt lat="43.2450371" lon="12.5073479"><ele>626.0</ele><time>2026-04-23T16:19:34.957Z</time></trkpt><trkpt lat="43.2439502" lon="12.5097635"><ele>617.0</ele><time>2026-04-23T16:20:45.957Z</time></trkpt><trkpt lat="43.2419346" lon="12.5106233"><ele>586.0</ele><time>2026-04-23T16:21:13.957Z</time></trkpt><trkpt lat="43.2403111" lon="12.5122966"><ele>581.0</ele><time>2026-04-23T16:21:51.957Z</time></trkpt><trkpt lat="43.2410743" lon="12.5149028"><ele>580.0</ele><time>2026-04-23T16:22:20.957Z</time></trkpt><trkpt lat="43.2398688" lon="12.5157507"><ele>583.0</ele><time>2026-04-23T16:22:32.957Z</time></trkpt><trkpt lat="43.2383972" lon="12.5176558"><ele>571.0</ele><time>2026-04-23T16:22:56.957Z</time></trkpt><trkpt lat="43.2356517" lon="12.5174552"><ele>587.0</ele><time>2026-04-23T16:24:21.957Z</time></trkpt><trkpt lat="43.2336493" lon="12.5179029"><ele>552.0</ele><time>2026-04-23T16:25:59.957Z</time></trkpt><trkpt lat="43.2324569" lon="12.5170318"><ele>525.0</ele><time>2026-04-23T16:26:27.957Z</time></trkpt><trkpt lat="43.2311081" lon="12.5168049"><ele>489.0</ele><time>2026-04-23T16:26:52.957Z</time></trkpt><trkpt lat="43.2297723" lon="12.5172352"><ele>470.0</ele><time>2026-04-23T16:27:25.957Z</time></trkpt><trkpt lat="43.2298518" lon="12.5153548"><ele>469.0</ele><time>2026-04-23T16:28:33.957Z</time></trkpt><trkpt lat="43.2282219" lon="12.5137104"><ele>447.0</ele><time>2026-04-23T16:29:47.957Z</time></trkpt><trkpt lat="43.228802" lon="12.5143497"><ele>421.0</ele><time>2026-04-23T16:30:39.957Z</time></trkpt><trkpt lat="43.2270676" lon="12.5159063"><ele>377.0</ele><time>2026-04-23T16:31:09.957Z</time></trkpt><trkpt lat="43.2260095" lon="12.5183843"><ele>385.0</ele><time>2026-04-23T16:31:42.957Z</time></trkpt><trkpt lat="43.226631" lon="12.5210277"><ele>385.0</ele><time>2026-04-23T16:32:01.957Z</time></trkpt><trkpt lat="43.2273748" lon="12.5236274"><ele>395.0</ele><time>2026-04-23T16:32:16.957Z</time></trkpt><trkpt lat="43.2293658" lon="12.5261849"><ele>395.0</ele><time>2026-04-23T16:32:40.957Z</time></trkpt><trkpt lat="43.2300594" lon="12.5289217"><ele>412.0</ele><time>2026-04-23T16:33:22.957Z</time></trkpt><trkpt lat="43.2295618" lon="12.5316311"><ele>440.0</ele><time>2026-04-23T16:33:40.957Z</time></trkpt><trkpt lat="43.2283929" lon="12.5349981"><ele>465.0</ele><time>2026-04-23T16:34:05.957Z</time></trkpt><trkpt lat="43.2296453" lon="12.5359279"><ele>497.0</ele><time>2026-04-23T16:35:04.957Z</time></trkpt><trkpt lat="43.2314896" lon="12.5347105"><ele>512.0</ele><time>2026-04-23T16:35:29.957Z</time></trkpt><trkpt lat="43.2311285" lon="12.536573"><ele>544.0</ele><time>2026-04-23T16:37:05.957Z</time></trkpt><trkpt lat="43.2311706" lon="12.539401"><ele>572.0</ele><time>2026-04-23T16:37:39.957Z</time></trkpt><trkpt lat="43.2297479" lon="12.5414335"><ele>573.0</ele><time>2026-04-23T16:38:05.957Z</time></trkpt><trkpt lat="43.2294573" lon="12.544245"><ele>554.0</ele><time>2026-04-23T16:39:31.957Z</time></trkpt><trkpt lat="43.2312723" lon="12.5429629"><ele>554.0</ele><time>2026-04-23T16:40:02.957Z</time></trkpt><trkpt lat="43.2328661" lon="12.5447228"><ele>558.0</ele><time>2026-04-23T16:40:31.957Z</time></trkpt><trkpt lat="43.2342836" lon="12.5446238"><ele>544.0</ele><time>2026-04-23T16:40:58.957Z</time></trkpt><trkpt lat="43.2363137" lon="12.5441118"><ele>562.0</ele><time>2026-04-23T16:44:10.957Z</time></trkpt><trkpt lat="43.2382935" lon="12.5447216"><ele>595.0</ele><time>2026-04-23T16:44:44.957Z</time></trkpt><trkpt lat="43.2382765" lon="12.546631"><ele>618.0</ele><time>2026-04-23T16:45:35.957Z</time></trkpt><trkpt lat="43.2377462" lon="12.5483927"><ele>638.0</ele><time>2026-04-23T16:46:14.957Z</time></trkpt><trkpt lat="43.2362366" lon="12.550339"><ele>653.0</ele><time>2026-04-23T16:46:45.957Z</time></trkpt><trkpt lat="43.2341752" lon="12.5506015"><ele>651.0</ele><time>2026-04-23T16:47:34.957Z</time></trkpt><trkpt lat="43.2316128" lon="12.5493788"><ele>656.0</ele><time>2026-04-23T16:48:09.957Z</time></trkpt><trkpt lat="43.229644" lon="12.5486301"><ele>654.0</ele><time>2026-04-23T16:48:35.957Z</time></trkpt><trkpt lat="43.2287233" lon="12.5472641"><ele>618.0</ele><time>2026-04-23T16:48:59.957Z</time></trkpt><trkpt lat="43.2277145" lon="12.5460126"><ele>626.0</ele><time>2026-04-23T16:49:23.957Z</time></trkpt><trkpt lat="43.2263637" lon="12.5457684"><ele>611.0</ele><time>2026-04-23T16:49:50.957Z</time></trkpt><trkpt lat="43.225336" lon="12.5445282"><ele>620.0</ele><time>2026-04-23T16:50:24.957Z</time></trkpt><trkpt lat="43.224028" lon="12.543979"><ele>615.0</ele><time>2026-04-23T16:50:39.958Z</time></trkpt><trkpt lat="43.2222001" lon="12.5425783"><ele>627.0</ele><time>2026-04-23T16:51:02.957Z</time></trkpt><trkpt lat="43.2207819" lon="12.5403863"><ele>633.0</ele><time>2026-04-23T16:51:21.957Z</time></trkpt><trkpt lat="43.2185044" lon="12.5368592"><ele>616.0</ele><time>2026-04-23T16:51:45.957Z</time></trkpt><trkpt lat="43.2163072" lon="12.5345709"><ele>616.0</ele><time>2026-04-23T16:52:07.957Z</time></trkpt><trkpt lat="43.2143286" lon="12.5318921"><ele>595.0</ele><time>2026-04-23T16:52:28.957Z</time></trkpt><trkpt lat="43.2150813" lon="12.5282635"><ele>593.0</ele><time>2026-04-23T16:53:23.957Z</time></trkpt><trkpt lat="43.2148543" lon="12.5254267"><ele>594.0</ele><time>2026-04-23T16:53:45.957Z</time></trkpt><trkpt lat="43.2161518" lon="12.5232074"><ele>585.0</ele><time>2026-04-23T16:54:05.958Z</time></trkpt><trkpt lat="43.2150626" lon="12.5208121"><ele>590.0</ele><time>2026-04-23T16:54:27.957Z</time></trkpt><trkpt lat="43.2138265" lon="12.5184984"><ele>581.0</ele><time>2026-04-23T16:54:53.957Z</time></trkpt><trkpt lat="43.2126823" lon="12.5161871"><ele>564.0</ele><time>2026-04-23T16:55:14.957Z</time></trkpt><trkpt lat="43.2124572" lon="12.5134155"><ele>548.0</ele><time>2026-04-23T16:56:25.957Z</time></trkpt><trkpt lat="43.2119026" lon="12.5116319"><ele>545.0</ele><time>2026-04-23T16:57:19.957Z</time></trkpt><trkpt lat="43.2105599" lon="12.5094901"><ele>548.0</ele><time>2026-04-23T16:57:45.957Z</time></trkpt><trkpt lat="43.2119026" lon="12.5116319"><ele>545.0</ele><time>2026-04-23T16:57:19.957Z</time></trkpt><trkpt lat="43.2105599" lon="12.5094901"><ele>538.0</ele><time>2026-04-23T16:57:45.957Z</time></trkpt><trkpt lat="43.2086155" lon="12.5084845"><ele>514.0</ele><time>2026-04-23T16:58:16.957Z</time></trkpt><trkpt lat="43.2068257" lon="12.5099852"><ele>467.0</ele><time>2026-04-23T16:59:00.957Z</time></trkpt><trkpt lat="43.2047898" lon="12.5100363"><ele>445.0</ele><time>2026-04-23T16:59:38.957Z</time></trkpt><trkpt lat="43.2045487" lon="12.5082176"><ele>431.0</ele><time>2026-04-23T17:00:26.957Z</time></trkpt><trkpt lat="43.20332" lon="12.507418"><ele>390.0</ele><time>2026-04-23T17:00:45.957Z</time></trkpt><trkpt lat="43.2019392" lon="12.5053908"><ele>358.0</ele><time>2026-04-23T17:01:33.957Z</time></trkpt><trkpt lat="43.2014136" lon="12.5036891"><ele>372.0</ele><time>2026-04-23T17:01:58.957Z</time></trkpt><trkpt lat="43.2007203" lon="12.5019998"><ele>350.0</ele><time>2026-04-23T17:02:19.957Z</time></trkpt><trkpt lat="43.199907" lon="12.4994141"><ele>339.0</ele><time>2026-04-23T17:04:35.958Z</time></trkpt><trkpt lat="43.1990596" lon="12.4979537"><ele>345.0</ele><time>2026-04-23T17:05:02.957Z</time></trkpt><trkpt lat="43.1985894" lon="12.4961763"><ele>334.0</ele><time>2026-04-23T17:06:06.958Z</time></trkpt><trkpt lat="43.1977982" lon="12.4946704"><ele>341.0</ele><time>2026-04-23T17:06:34.957Z</time></trkpt><trkpt lat="43.1968905" lon="12.492095"><ele>331.0</ele><time>2026-04-23T17:10:59.963Z</time></trkpt><trkpt lat="43.1951725" lon="12.4905324"><ele>324.0</ele><time>2026-04-23T17:11:34.963Z</time></trkpt><trkpt lat="43.194611" lon="12.4878238"><ele>306.0</ele><time>2026-04-23T17:12:00.963Z</time></trkpt><trkpt lat="43.1930947" lon="12.4859398"><ele>288.0</ele><time>2026-04-23T17:18:24.963Z</time></trkpt><trkpt lat="43.1921193" lon="12.4834524"><ele>279.0</ele><time>2026-04-23T17:18:48.963Z</time></trkpt><trkpt lat="43.1919432" lon="12.4805597"><ele>278.0</ele><time>2026-04-23T17:19:10.963Z</time></trkpt><trkpt lat="43.1907621" lon="12.4783101"><ele>271.0</ele><time>2026-04-23T17:19:29.963Z</time></trkpt><trkpt lat="43.1890355" lon="12.476728"><ele>263.0</ele><time>2026-04-23T17:19:53.963Z</time></trkpt><trkpt lat="43.1879215" lon="12.479042"><ele>282.0</ele><time>2026-04-23T17:21:08.963Z</time></trkpt><trkpt lat="43.1870494" lon="12.4826946"><ele>295.0</ele><time>2026-04-23T17:21:32.963Z</time></trkpt><trkpt lat="43.1864223" lon="12.486389"><ele>292.0</ele><time>2026-04-23T17:21:51.963Z</time></trkpt><trkpt lat="43.186647" lon="12.4902323"><ele>326.0</ele><time>2026-04-23T17:22:12.963Z</time></trkpt><trkpt lat="43.1839926" lon="12.491088"><ele>340.0</ele><time>2026-04-23T17:23:16.963Z</time></trkpt><trkpt lat="43.1815748" lon="12.48935"><ele>348.0</ele><time>2026-04-23T17:24:28.963Z</time></trkpt><trkpt lat="43.1797643" lon="12.4880132"><ele>341.0</ele><time>2026-04-23T17:24:54.963Z</time></trkpt><trkpt lat="43.1777986" lon="12.4871213"><ele>335.0</ele><time>2026-04-23T17:25:14.963Z</time></trkpt><trkpt lat="43.1757339" lon="12.4868099"><ele>353.0</ele><time>2026-04-23T17:25:39.963Z</time></trkpt><trkpt lat="43.1739413" lon="12.4855017"><ele>351.0</ele><time>2026-04-23T17:26:38.963Z</time></trkpt><trkpt lat="43.172949" lon="12.4830453"><ele>341.0</ele><time>2026-04-23T17:27:21.963Z</time></trkpt><trkpt lat="43.1715635" lon="12.4835737"><ele>339.0</ele><time>2026-04-23T17:27:51.963Z</time></trkpt><trkpt lat="43.1698657" lon="12.4851158"><ele>340.0</ele><time>2026-04-23T17:28:17.963Z</time></trkpt><trkpt lat="43.1710276" lon="12.4861554"><ele>338.0</ele><time>2026-04-23T17:29:17.963Z</time></trkpt><trkpt lat="43.1729674" lon="12.4871586"><ele>348.0</ele><time>2026-04-23T17:30:22.963Z</time></trkpt><trkpt lat="43.1743344" lon="12.4873329"><ele>338.0</ele><time>2026-04-23T17:30:44.963Z</time></trkpt><trkpt lat="43.172962" lon="12.4871346"><ele>324.0</ele><time>2026-04-23T17:33:29.963Z</time></trkpt><trkpt lat="43.1709674" lon="12.4862867"><ele>328.0</ele><time>2026-04-23T17:34:04.963Z</time></trkpt><trkpt lat="43.1696304" lon="12.4867133"><ele>320.0</ele><time>2026-04-23T17:34:28.963Z</time></trkpt><trkpt lat="43.1689414" lon="12.4883533"><ele>289.0</ele><time>2026-04-23T17:34:49.963Z</time></trkpt><trkpt lat="43.1694359" lon="12.4910859"><ele>282.0</ele><time>2026-04-23T17:35:37.963Z</time></trkpt><trkpt lat="43.1675397" lon="12.49229"><ele>272.0</ele><time>2026-04-23T17:36:17.963Z</time></trkpt><trkpt lat="43.1655178" lon="12.4927261"><ele>272.0</ele><time>2026-04-23T17:36:40.963Z</time></trkpt><trkpt lat="43.1635845" lon="12.4935716"><ele>266.0</ele><time>2026-04-23T17:37:48.963Z</time></trkpt><trkpt lat="43.1617332" lon="12.4947035"><ele>261.0</ele><time>2026-04-23T17:38:23.963Z</time></trkpt><trkpt lat="43.1605584" lon="12.49369"><ele>256.0</ele><time>2026-04-23T17:38:43.963Z</time></trkpt><trkpt lat="43.1588801" lon="12.4919631"><ele>250.0</ele><time>2026-04-23T17:39:01.963Z</time></trkpt><trkpt lat="43.1566852" lon="12.4897566"><ele>246.0</ele><time>2026-04-23T17:39:22.964Z</time></trkpt><trkpt lat="43.1544372" lon="12.4875746"><ele>245.0</ele><time>2026-04-23T17:39:48.963Z</time></trkpt><trkpt lat="43.1527827" lon="12.4859246"><ele>247.0</ele><time>2026-04-23T17:40:02.963Z</time></trkpt><trkpt lat="43.1505111" lon="12.4836191"><ele>243.0</ele><time>2026-04-23T17:40:22.963Z</time></trkpt><trkpt lat="43.1482995" lon="12.4814175"><ele>234.0</ele><time>2026-04-23T17:40:40.963Z</time></trkpt><trkpt lat="43.1461194" lon="12.4792277"><ele>236.0</ele><time>2026-04-23T17:40:58.963Z</time></trkpt><trkpt lat="43.1448927" lon="12.4758861"><ele>227.0</ele><time>2026-04-23T17:41:16.963Z</time></trkpt><trkpt lat="43.1435563" lon="12.4725506"><ele>219.0</ele><time>2026-04-23T17:41:39.963Z</time></trkpt><trkpt lat="43.1423828" lon="12.4691926"><ele>208.0</ele><time>2026-04-23T17:41:59.963Z</time></trkpt><trkpt lat="43.1417749" lon="12.4655576"><ele>232.0</ele><time>2026-04-23T17:42:18.964Z</time></trkpt><trkpt lat="43.1406916" lon="12.4619993"><ele>213.0</ele><time>2026-04-23T17:42:36.963Z</time></trkpt><trkpt lat="43.1392498" lon="12.4577672"><ele>208.0</ele><time>2026-04-23T17:42:56.963Z</time></trkpt><trkpt lat="43.1368304" lon="12.4545151"><ele>206.0</ele><time>2026-04-23T17:43:13.963Z</time></trkpt><trkpt lat="43.1335476" lon="12.4533123"><ele>207.0</ele><time>2026-04-23T17:43:37.963Z</time></trkpt><trkpt lat="43.1313982" lon="12.4534539"><ele>208.0</ele><time>2026-04-23T17:43:52.963Z</time></trkpt><trkpt lat="43.1279235" lon="12.4536519"><ele>205.0</ele><time>2026-04-23T17:44:13.963Z</time></trkpt><trkpt lat="43.1245765" lon="12.4520745"><ele>212.0</ele><time>2026-04-23T17:44:33.962Z</time></trkpt><trkpt lat="43.121144" lon="12.4521903"><ele>199.0</ele><time>2026-04-23T17:44:53.963Z</time></trkpt><trkpt lat="43.1185531" lon="12.4536734"><ele>193.0</ele><time>2026-04-23T17:45:11.963Z</time></trkpt><trkpt lat="43.115247" lon="12.4523631"><ele>193.0</ele><time>2026-04-23T17:45:38.963Z</time></trkpt><trkpt lat="43.1126891" lon="12.4509956"><ele>193.0</ele><time>2026-04-23T17:46:04.963Z</time></trkpt></trkseg></trk></gpx>